Time;durP1;ratioP1;P1;durP2;ratioP2;P2;SDS_P1;SDS_P2;PMS_P1;PMS_P2;Temp;Humidity;BMP_temperature;BMP_pressure;BME280_temperature;BME280_humidity;BME280_pressure;Samples;Min_cycle;Max_cycle;Signal;HPM_P1;HPM_P2
2022/07/25 00:00:28;;;;;;;64.93;53.65;;;26.90;54.70;;;;;;4980784;27;96378;-70
2022/07/25 00:02:54;;;;;;;67.10;53.53;;;26.90;54.80;;;;;;4971631;27;101358;-71
2022/07/25 00:05:19;;;;;;;65.47;53.42;;;26.90;54.80;;;;;;4991943;27;95945;-70
2022/07/25 00:07:45;;;;;;;64.47;53.42;;;26.90;54.90;;;;;;4997471;27;96984;-71
2022/07/25 00:10:11;;;;;;;64.40;53.47;;;26.90;54.90;;;;;;4979955;27;95433;-70
2022/07/25 00:12:37;;;;;;;64.63;53.58;;;26.80;54.90;;;;;;4995909;27;94828;-71
2022/07/25 00:15:04;;;;;;;64.13;52.75;;;26.80;54.80;;;;;;4975569;27;98241;-70
2022/07/25 00:17:29;;;;;;;64.30;53.42;;;26.80;55.00;;;;;;4997942;27;95040;-71
2022/07/25 00:19:55;;;;;;;65.03;53.28;;;26.80;55.10;;;;;;4994876;27;100026;-71
2022/07/25 00:22:20;;;;;;;64.43;52.95;;;26.80;55.10;;;;;;4998401;27;98707;-71
2022/07/25 00:24:46;;;;;;;65.20;53.35;;;26.80;55.20;;;;;;4994619;27;94895;-70
2022/07/25 00:27:12;;;;;;;64.35;52.83;;;26.80;55.20;;;;;;4985186;27;96768;-70
2022/07/25 00:29:37;;;;;;;63.38;52.95;;;26.80;55.30;;;;;;5006498;27;95345;-70
2022/07/25 00:32:04;;;;;;;63.75;53.30;;;26.80;55.40;;;;;;4987683;27;97195;-70
2022/07/25 00:34:29;;;;;;;64.20;52.97;;;26.80;55.40;;;;;;4992635;27;97333;-72
2022/07/25 00:36:55;;;;;;;64.20;53.25;;;26.80;55.40;;;;;;4985099;27;94740;-70
2022/07/25 00:39:20;;;;;;;64.80;53.17;;;26.80;55.40;;;;;;4990203;27;96822;-71
2022/07/25 00:41:46;;;;;;;63.97;53.00;;;26.80;55.50;;;;;;4992308;27;99728;-70
2022/07/25 00:44:41;;;;;;;66.30;53.35;;;26.80;55.50;;;;;;4984864;27;94870;-70
2022/07/25 00:47:07;;;;;;;65.65;53.30;;;26.80;55.60;;;;;;4982430;27;95825;-70
2022/07/25 00:49:33;;;;;;;63.85;53.05;;;26.80;55.60;;;;;;4991925;27;94639;-70
2022/07/25 00:51:59;;;;;;;64.07;52.95;;;26.70;55.50;;;;;;4996117;27;95749;-71
2022/07/25 00:54:25;;;;;;;64.57;53.17;;;26.80;55.60;;;;;;4998550;27;95221;-71
2022/07/25 00:56:50;;;;;;;64.95;53.05;;;26.80;55.60;;;;;;5007854;27;99677;-70
2022/07/25 00:59:17;;;;;;;64.40;53.33;;;26.80;55.60;;;;;;4988572;27;97071;-70
2022/07/25 01:01:44;;;;;;;64.10;53.00;;;26.80;55.70;;;;;;4978291;27;97043;-71
2022/07/25 01:04:10;;;;;;;64.18;52.95;;;26.80;55.60;;;;;;4990759;27;101460;-71
2022/07/25 01:06:36;;;;;;;64.03;53.05;;;26.80;55.70;;;;;;4993885;27;96679;-71
2022/07/25 01:09:01;;;;;;;63.67;52.63;;;26.80;55.70;;;;;;4999216;27;95115;-71
2022/07/25 01:11:27;;;;;;;64.00;53.00;;;26.80;55.70;;;;;;4984030;27;100970;-70
2022/07/25 01:13:53;;;;;;;63.63;52.83;;;26.80;55.70;;;;;;4991429;27;95236;-70
2022/07/25 01:16:18;;;;;;;64.38;53.20;;;26.80;55.70;;;;;;4990536;27;96125;-70
2022/07/25 01:18:44;;;;;;;64.22;52.95;;;26.80;55.80;;;;;;5004254;27;96406;-70
2022/07/25 01:21:09;;;;;;;63.40;52.78;;;26.80;55.80;;;;;;4994217;27;96550;-70
2022/07/25 01:23:35;;;;;;;63.65;53.00;;;26.70;55.70;;;;;;5003933;27;96449;-70
2022/07/25 01:26:01;;;;;;;64.78;53.40;;;26.80;56.40;;;;;;4999547;27;95920;-72
2022/07/25 01:28:27;;;;;;;63.88;52.83;;;26.80;55.80;;;;;;4997932;27;95289;-71
2022/07/25 01:30:53;;;;;;;64.15;52.65;;;26.70;55.70;;;;;;4990616;27;100360;-70
2022/07/25 01:33:20;;;;;;;64.47;52.92;;;26.80;55.80;;;;;;4987698;27;95086;-70
2022/07/25 01:35:47;;;;;;;64.22;53.05;;;26.70;55.80;;;;;;4992318;27;95134;-71
2022/07/25 01:38:13;;;;;;;64.32;52.78;;;26.70;55.70;;;;;;4996331;27;95373;-70
2022/07/25 01:40:39;;;;;;;63.67;53.00;;;26.70;55.80;;;;;;4980074;27;97035;-71
2022/07/25 01:43:05;;;;;;;63.33;52.75;;;26.80;55.90;;;;;;4999030;27;95021;-70
2022/07/25 01:45:31;;;;;;;64.80;53.25;;;26.70;55.80;;;;;;4998052;27;97165;-70
2022/07/25 01:47:57;;;;;;;63.78;53.28;;;26.70;55.80;;;;;;4992216;27;95469;-70
2022/07/25 01:50:23;;;;;;;63.95;52.92;;;26.70;55.90;;;;;;4990979;27;96337;-71
2022/07/25 01:52:49;;;;;;;63.03;52.53;;;26.70;55.90;;;;;;5003577;27;95115;-70
2022/07/25 01:55:15;;;;;;;63.60;52.65;;;26.70;55.90;;;;;;4999864;27;94652;-71
2022/07/25 01:57:40;;;;;;;64.15;52.90;;;26.70;55.90;;;;;;4987257;27;96202;-71
2022/07/25 02:00:09;;;;;;;63.63;52.78;;;26.70;55.90;;;;;;4991755;27;97772;-70
2022/07/25 02:02:35;;;;;;;63.33;52.40;;;26.70;55.90;;;;;;5001371;27;95285;-70
2022/07/25 02:05:00;;;;;;;66.13;52.78;;;26.70;56.00;;;;;;4996455;27;96877;-71
2022/07/25 02:07:26;;;;;;;63.40;52.63;;;26.70;56.00;;;;;;4989498;27;97693;-70
2022/07/25 02:09:51;;;;;;;63.80;52.78;;;26.70;56.00;;;;;;4980655;27;99732;-70
2022/07/25 02:12:17;;;;;;;63.38;52.65;;;26.70;56.00;;;;;;4993096;27;100567;-71
2022/07/25 02:14:43;;;;;;;63.08;52.53;;;26.70;56.00;;;;;;4997167;27;97581;-70
2022/07/25 02:17:08;;;;;;;65.55;53.05;;;26.70;56.00;;;;;;4981247;27;97270;-71
2022/07/25 02:19:35;;;;;;;64.05;52.65;;;26.70;55.90;;;;;;5001192;27;95185;-71
2022/07/25 02:22:00;;;;;;;63.78;52.35;;;26.70;56.00;;;;;;4986378;27;95632;-71
2022/07/25 02:24:26;;;;;;;63.50;52.55;;;26.60;55.90;;;;;;4984235;27;96111;-71
2022/07/25 02:26:52;;;;;;;63.45;52.67;;;26.70;56.00;;;;;;5007272;27;101182;-71
2022/07/25 02:29:17;;;;;;;64.68;52.70;;;26.60;55.90;;;;;;4992097;27;95662;-70
2022/07/25 02:31:43;;;;;;;63.58;52.42;;;26.60;56.00;;;;;;4995005;27;96410;-70
2022/07/25 02:34:09;;;;;;;63.28;52.53;;;26.60;56.10;;;;;;4993039;27;96029;-71
2022/07/25 02:36:34;;;;;;;63.30;52.80;;;26.60;56.00;;;;;;4977411;27;95357;-70
2022/07/25 02:39:00;;;;;;;64.07;52.75;;;26.60;56.00;;;;;;5002698;27;98743;-70
2022/07/25 02:41:26;;;;;;;64.82;53.00;;;26.60;56.00;;;;;;4986723;27;96220;-70
2022/07/25 02:43:51;;;;;;;62.70;52.30;;;26.60;56.10;;;;;;4997351;27;98348;-71
2022/07/25 02:46:18;;;;;;;63.80;52.78;;;26.60;56.10;;;;;;5001601;27;95109;-70
2022/07/25 02:48:43;;;;;;;63.00;52.28;;;26.60;56.00;;;;;;4999470;27;95165;-70
2022/07/25 02:51:09;;;;;;;63.55;52.53;;;26.60;56.20;;;;;;4991540;27;98032;-71
2022/07/25 02:53:34;;;;;;;62.80;52.28;;;26.60;56.10;;;;;;4989536;27;98957;-71
2022/07/25 02:56:00;;;;;;;63.13;52.58;;;26.60;56.10;;;;;;5002331;27;95424;-72
2022/07/25 02:58:26;;;;;;;63.00;52.28;;;26.60;56.20;;;;;;4988694;27;96619;-71
2022/07/25 03:00:51;;;;;;;64.40;52.58;;;26.60;56.20;;;;;;4989086;27;95614;-71
2022/07/25 03:03:17;;;;;;;62.92;52.38;;;26.60;56.20;;;;;;4993131;27;94820;-70
2022/07/25 03:05:42;;;;;;;62.97;52.65;;;26.60;56.60;;;;;;4996954;27;94796;-71
2022/07/25 03:08:08;;;;;;;63.58;52.25;;;26.60;56.20;;;;;;4990146;27;99428;-71
2022/07/25 03:10:35;;;;;;;63.58;52.45;;;26.60;56.20;;;;;;4999043;27;96296;-70
2022/07/25 03:13:01;;;;;;;63.75;52.20;;;26.50;56.10;;;;;;4985814;27;97271;-70
2022/07/25 03:15:26;;;;;;;63.15;52.40;;;26.60;56.70;;;;;;4991029;27;100113;-71
2022/07/25 03:17:52;;;;;;;63.25;52.42;;;26.60;56.10;;;;;;4998260;27;96160;-71
2022/07/25 03:20:17;;;;;;;63.47;52.42;;;26.50;56.10;;;;;;4991049;27;95854;-70
2022/07/25 03:22:44;;;;;;;62.90;52.38;;;26.50;56.10;;;;;;5018977;27;96557;-71
2022/07/25 03:25:10;;;;;;;62.70;51.90;;;26.50;56.00;;;;;;5005925;27;95565;-71
2022/07/25 03:27:35;;;;;;;63.08;52.03;;;26.50;56.00;;;;;;5003217;27;96729;-70
2022/07/25 03:30:02;;;;;;;62.50;52.15;;;26.50;56.00;;;;;;4990965;27;97181;-71
2022/07/25 03:32:27;;;;;;;63.53;52.28;;;26.50;56.10;;;;;;4984663;28;95932;-71
2022/07/25 03:34:53;;;;;;;62.75;52.15;;;26.50;56.00;;;;;;4999856;27;96164;-71
2022/07/25 03:37:18;;;;;;;63.58;52.15;;;26.50;56.10;;;;;;4986871;27;96251;-70
2022/07/25 03:39:44;;;;;;;62.53;52.00;;;26.50;56.00;;;;;;4994521;27;94900;-70
2022/07/25 03:42:10;;;;;;;62.50;51.85;;;26.50;56.00;;;;;;4999293;27;95875;-71
2022/07/25 03:44:36;;;;;;;62.45;51.92;;;26.50;56.10;;;;;;5003337;27;95135;-71
2022/07/25 03:47:03;;;;;;;62.90;51.75;;;26.50;56.10;;;;;;4994321;27;100747;-70
2022/07/25 03:49:28;;;;;;;62.58;51.83;;;26.50;56.10;;;;;;4996629;27;96660;-70
2022/07/25 03:51:54;;;;;;;61.85;51.47;;;26.40;56.10;;;;;;4986868;27;101949;-71
2022/07/25 03:54:19;;;;;;;62.42;52.25;;;26.50;56.00;;;;;;5000349;27;95634;-70
2022/07/25 03:56:47;;;;;;;63.70;52.22;;;26.50;56.10;;;;;;4981818;27;97726;-71
2022/07/25 03:59:15;;;;;;;62.65;51.78;;;26.50;56.20;;;;;;4995605;27;95684;-71
2022/07/25 04:01:42;;;;;;;62.85;52.17;;;26.50;56.10;;;;;;4976433;27;98600;-71
2022/07/25 04:04:08;;;;;;;61.97;51.63;;;26.40;56.10;;;;;;4972928;27;94649;-70
2022/07/25 04:06:35;;;;;;;62.58;51.85;;;26.50;56.00;;;;;;4996937;27;95489;-70
2022/07/25 04:09:00;;;;;;;62.38;52.03;;;26.50;56.10;;;;;;4995287;27;96282;-70
2022/07/25 04:11:28;;;;;;;62.33;51.70;;;26.40;56.00;;;;;;4999256;27;102045;-70
2022/07/25 04:13:54;;;;;;;62.47;51.88;;;26.40;56.00;;;;;;5002125;27;95388;-70
2022/07/25 04:16:20;;;;;;;63.10;52.17;;;26.40;56.00;;;;;;4989173;27;96665;-71
2022/07/25 04:18:45;;;;;;;62.13;51.88;;;26.40;56.10;;;;;;4969304;27;101115;-70
2022/07/25 04:21:11;;;;;;;62.95;52.15;;;26.40;56.20;;;;;;4987973;27;95515;-71
2022/07/25 04:23:37;;;;;;;62.90;51.72;;;26.40;56.20;;;;;;5014166;27;95026;-71
2022/07/25 04:26:03;;;;;;;63.28;52.08;;;26.40;56.00;;;;;;4990038;27;97869;-71
2022/07/25 04:28:29;;;;;;;63.72;51.58;;;26.40;56.00;;;;;;5001642;27;95612;-71
2022/07/25 04:30:55;;;;;;;63.58;51.97;;;26.40;56.20;;;;;;4983267;27;96202;-70
2022/07/25 04:33:21;;;;;;;65.78;51.63;;;26.40;56.10;;;;;;4997115;27;98773;-71
2022/07/25 04:35:47;;;;;;;63.50;52.28;;;26.40;56.10;;;;;;4995264;27;96402;-71
2022/07/25 04:38:12;;;;;;;63.50;52.50;;;26.40;56.20;;;;;;4980475;27;98911;-71
2022/07/25 04:40:38;;;;;;;64.22;52.22;;;26.30;56.30;;;;;;5014341;27;95447;-71
2022/07/25 04:43:04;;;;;;;64.00;52.10;;;26.40;56.30;;;;;;4996183;27;96328;-71
2022/07/25 04:45:31;;;;;;;65.05;52.33;;;26.30;56.30;;;;;;5006139;27;95203;-71
2022/07/25 04:47:56;;;;;;;64.97;52.35;;;26.30;56.10;;;;;;4998748;27;96179;-72
2022/07/25 04:50:22;;;;;;;63.92;52.35;;;26.40;56.20;;;;;;5000473;27;95115;-70
2022/07/25 04:52:48;;;;;;;66.60;52.50;;;26.30;56.30;;;;;;5002722;27;94692;-71
2022/07/25 04:55:14;;;;;;;64.03;52.45;;;26.40;56.40;;;;;;4978858;28;102043;-71
2022/07/25 04:57:40;;;;;;;66.40;52.85;;;26.30;56.30;;;;;;4996119;27;95491;-71
2022/07/25 05:00:08;;;;;;;66.88;52.85;;;26.30;56.30;;;;;;5011194;27;100890;-70
2022/07/25 05:02:34;;;;;;;68.88;53.00;;;26.30;56.20;;;;;;4990858;27;95265;-71
2022/07/25 05:05:01;;;;;;;67.28;53.08;;;26.30;56.30;;;;;;4995745;27;96912;-71
2022/07/25 05:07:27;;;;;;;66.55;52.80;;;26.30;56.40;;;;;;4995747;27;95433;-70
2022/07/25 05:09:52;;;;;;;66.80;52.97;;;26.30;56.40;;;;;;4991114;27;97653;-70
2022/07/25 05:12:18;;;;;;;67.68;52.72;;;26.40;56.30;;;;;;5000674;27;101163;-71
2022/07/25 05:14:44;;;;;;;66.35;52.67;;;26.30;56.20;;;;;;5009098;27;95427;-71
2022/07/25 05:17:10;;;;;;;66.72;53.35;;;26.40;56.40;;;;;;4994886;27;98073;-71
2022/07/25 05:19:36;;;;;;;65.78;52.88;;;26.40;56.40;;;;;;5005877;27;95492;-71
2022/07/25 05:22:02;;;;;;;67.78;54.15;;;26.40;56.30;;;;;;4991608;27;95146;-71
2022/07/25 05:24:28;;;;;;;69.40;53.85;;;26.30;55.50;;;;;;5002897;27;96380;-70
2022/07/25 05:26:53;;;;;;;68.20;52.85;;;26.00;55.30;;;;;;4986286;27;99093;-70
2022/07/25 05:29:19;;;;;;;73.55;52.88;;;25.80;55.80;;;;;;5011912;27;95191;-70
2022/07/25 05:31:45;;;;;;;67.00;52.40;;;25.60;55.80;;;;;;4990998;27;94697;-71
2022/07/25 05:34:10;;;;;;;67.03;52.30;;;25.50;56.00;;;;;;4983746;27;95732;-70
2022/07/25 05:36:36;;;;;;;64.40;51.63;;;25.40;56.30;;;;;;5000495;27;96381;-71
2022/07/25 05:39:02;;;;;;;68.03;52.10;;;25.30;56.40;;;;;;4969341;27;98014;-71
2022/07/25 05:41:28;;;;;;;66.47;51.63;;;25.20;56.80;;;;;;4993476;27;100934;-70
2022/07/25 05:43:54;;;;;;;64.20;51.65;;;25.20;57.10;;;;;;4978162;27;98025;-71
2022/07/25 05:46:19;;;;;;;64.30;51.58;;;25.20;57.30;;;;;;4994730;27;96915;-71
2022/07/25 05:48:45;;;;;;;65.53;51.53;;;25.20;57.60;;;;;;5005543;27;96576;-71
2022/07/25 05:51:11;;;;;;;65.05;51.63;;;25.10;57.80;;;;;;5002498;27;94797;-70
2022/07/25 05:53:37;;;;;;;65.70;51.63;;;25.10;58.00;;;;;;4998510;27;96496;-70
2022/07/25 05:56:03;;;;;;;69.10;51.90;;;25.10;58.00;;;;;;5001725;27;96266;-69
2022/07/25 05:58:29;;;;;;;66.00;51.70;;;25.00;57.90;;;;;;5004698;27;95370;-70
2022/07/25 06:00:55;;;;;;;63.38;51.60;;;25.00;58.30;;;;;;4988512;27;97344;-70
2022/07/25 06:03:21;;;;;;;65.07;51.25;;;25.00;58.20;;;;;;4965302;28;96971;-68
2022/07/25 06:05:47;;;;;;;65.88;51.35;;;25.00;58.20;;;;;;4995164;27;96694;-69
2022/07/25 06:08:13;;;;;;;62.28;51.25;;;25.00;58.50;;;;;;4997605;27;98516;-69
2022/07/25 06:10:40;;;;;;;64.88;51.53;;;24.90;59.00;;;;;;5018092;27;94996;-71
2022/07/25 06:13:06;;;;;;;64.13;51.33;;;24.90;59.40;;;;;;4990384;27;97971;-71
2022/07/25 06:15:31;;;;;;;64.30;51.65;;;24.90;59.40;;;;;;5008574;27;95734;-71
2022/07/25 06:17:57;;;;;;;68.95;51.83;;;24.90;59.50;;;;;;5000307;27;95455;-71
2022/07/25 06:20:23;;;;;;;66.18;52.08;;;24.90;59.80;;;;;;4987813;27;95094;-70
2022/07/25 06:22:48;;;;;;;65.32;51.42;;;25.00;59.70;;;;;;4982706;27;96383;-70
2022/07/25 06:25:14;;;;;;;68.13;51.95;;;25.00;60.10;;;;;;4993771;27;96135;-70
2022/07/25 06:27:41;;;;;;;65.72;51.95;;;25.00;60.40;;;;;;5010213;27;95186;-70
2022/07/25 06:30:08;;;;;;;67.80;52.15;;;24.90;60.50;;;;;;5002010;27;94574;-69
2022/07/25 06:32:34;;;;;;;67.57;51.83;;;24.90;60.60;;;;;;5003505;27;95739;-70
2022/07/25 06:35:00;;;;;;;65.80;51.90;;;24.90;60.80;;;;;;5002734;27;98721;-70
2022/07/25 06:37:25;;;;;;;65.88;51.55;;;24.90;60.90;;;;;;4995391;27;98450;-71
2022/07/25 06:39:51;;;;;;;63.50;51.40;;;25.00;60.90;;;;;;5004023;27;94735;-71
2022/07/25 06:42:17;;;;;;;65.95;51.35;;;25.00;60.50;;;;;;5005849;27;95130;-72
2022/07/25 06:44:43;;;;;;;62.05;50.92;;;24.90;60.60;;;;;;4987652;28;95354;-72
2022/07/25 06:47:11;;;;;;;65.32;51.03;;;24.90;60.80;;;;;;5006517;27;97959;-72
2022/07/25 06:49:41;;;;;;;63.55;51.15;;;24.90;60.80;;;;;;5006161;27;95105;-71
2022/07/25 06:52:07;;;;;;;62.97;51.15;;;25.00;60.90;;;;;;5010250;27;95790;-71
2022/07/25 06:54:33;;;;;;;67.50;51.00;;;25.00;60.90;;;;;;4993285;28;97833;-70
2022/07/25 06:56:59;;;;;;;63.00;50.95;;;25.10;60.70;;;;;;5005048;27;100750;-70
2022/07/25 06:59:25;;;;;;;67.97;51.08;;;25.20;60.40;;;;;;5004274;27;94602;-71
2022/07/25 07:01:50;;;;;;;64.32;50.97;;;25.40;60.20;;;;;;5003907;27;100597;-71
2022/07/25 07:04:16;;;;;;;61.15;50.65;;;25.60;60.10;;;;;;5003755;27;97267;-70
2022/07/25 07:06:42;;;;;;;63.42;50.80;;;25.70;59.30;;;;;;5014771;27;97219;-70
2022/07/25 07:09:08;;;;;;;61.50;50.75;;;25.80;59.00;;;;;;5003282;27;95117;-71
2022/07/25 07:11:34;;;;;;;64.72;50.83;;;25.90;58.90;;;;;;5007174;27;95296;-70
2022/07/25 07:14:04;;;;;;;64.35;51.13;;;25.90;58.90;;;;;;5001726;27;99229;-70
2022/07/25 07:16:30;;;;;;;62.88;50.97;;;25.90;58.60;;;;;;4995671;27;95068;-70
2022/07/25 07:18:57;;;;;;;63.78;51.15;;;26.00;58.50;;;;;;5000746;27;93927;-70
2022/07/25 07:21:23;;;;;;;63.63;51.00;;;26.00;58.80;;;;;;5004376;27;96329;-71
2022/07/25 07:23:49;;;;;;;64.20;51.17;;;26.00;58.10;;;;;;5000078;27;95677;-71
2022/07/25 07:26:14;;;;;;;63.72;51.05;;;26.00;58.00;;;;;;4999109;27;108156;-70
2022/07/25 07:28:40;;;;;;;63.25;51.08;;;26.00;58.10;;;;;;5001600;27;95411;-70
2022/07/25 07:31:06;;;;;;;64.45;51.05;;;26.10;58.30;;;;;;5012103;27;95396;-71
2022/07/25 07:33:32;;;;;;;63.60;51.10;;;26.00;58.30;;;;;;4984224;27;97739;-70
2022/07/25 07:35:58;;;;;;;64.63;50.92;;;26.00;58.30;;;;;;4997607;27;97024;-70
2022/07/25 07:38:25;;;;;;;62.53;51.15;;;26.00;58.20;;;;;;5011486;27;95479;-71
2022/07/25 07:40:51;;;;;;;62.30;51.13;;;26.00;58.10;;;;;;5005632;27;96319;-70
2022/07/25 07:43:17;;;;;;;63.25;50.83;;;26.00;58.10;;;;;;4997432;27;95922;-72
2022/07/25 07:45:43;;;;;;;62.15;50.95;;;26.00;58.70;;;;;;4991103;27;95013;-71
2022/07/25 07:48:09;;;;;;;62.35;50.90;;;26.00;58.10;;;;;;5004316;27;95347;-71
2022/07/25 07:50:35;;;;;;;62.67;50.97;;;26.10;58.20;;;;;;4989540;27;97397;-70
2022/07/25 07:53:01;;;;;;;62.60;51.35;;;26.00;58.20;;;;;;5002037;27;97609;-70
2022/07/25 07:55:47;;;;;;;64.50;51.25;;;26.10;58.10;;;;;;5003205;27;95166;-70
2022/07/25 07:58:17;;;;;;;61.83;50.75;;;26.10;58.60;;;;;;5011372;27;94967;-71
2022/07/25 08:00:44;;;;;;;62.23;51.17;;;26.00;57.50;;;;;;4974212;27;101656;-70
2022/07/25 08:03:10;;;;;;;61.38;50.85;;;26.10;57.60;;;;;;5021431;27;95328;-71
2022/07/25 08:05:44;;;;;;;62.17;51.08;;;26.10;57.60;;;;;;4994868;27;99221;-71
2022/07/25 08:08:12;;;;;;;62.20;51.22;;;26.10;57.60;;;;;;5019097;27;93985;-70
2022/07/25 08:10:40;;;;;;;62.53;50.92;;;26.20;57.90;;;;;;5004638;27;96329;-71
2022/07/25 08:13:17;;;;;;;62.92;51.15;;;26.20;57.40;;;;;;5007143;27;101616;-70
2022/07/25 08:15:45;;;;;;;64.93;51.42;;;26.20;57.50;;;;;;4986183;28;98806;-70
2022/07/25 08:18:11;;;;;;;62.72;51.33;;;26.20;57.70;;;;;;4985066;27;95347;-70
2022/07/25 08:20:37;;;;;;;62.70;51.38;;;26.20;57.50;;;;;;4990524;27;97690;-70
2022/07/25 08:23:03;;;;;;;65.75;51.53;;;26.20;57.50;;;;;;4983278;27;102428;-71
2022/07/25 08:25:29;;;;;;;63.17;51.63;;;26.20;57.50;;;;;;5008760;27;95088;-71
2022/07/25 08:27:54;;;;;;;65.25;51.33;;;26.20;57.40;;;;;;5007099;27;94918;-70
2022/07/25 08:30:20;;;;;;;62.53;51.50;;;26.20;57.40;;;;;;4996524;27;107743;-70
2022/07/25 08:32:55;;;;;;;63.50;51.65;;;26.30;57.40;;;;;;4977606;27;96865;-70
2022/07/25 08:35:22;;;;;;;63.28;51.53;;;26.30;57.30;;;;;;4987710;27;100227;-73
2022/07/25 08:37:48;;;;;;;63.38;51.70;;;26.30;57.30;;;;;;4998012;27;97381;-72
2022/07/25 08:40:15;;;;;;;63.95;51.55;;;26.30;57.30;;;;;;5010375;27;96494;-72
2022/07/25 08:42:41;;;;;;;63.17;51.38;;;26.30;57.20;;;;;;5009119;27;97034;-71
2022/07/25 08:45:11;;;;;;;63.30;51.65;;;26.30;57.30;;;;;;4998102;27;95469;-71
2022/07/25 08:47:39;;;;;;;64.00;51.80;;;26.30;57.20;;;;;;5006999;27;94798;-70
2022/07/25 08:50:07;;;;;;;62.88;51.55;;;26.30;57.20;;;;;;4994414;27;94992;-71
2022/07/25 08:52:34;;;;;;;63.10;51.58;;;26.30;57.10;;;;;;5002837;27;96993;-71
2022/07/25 08:55:02;;;;;;;63.80;51.80;;;26.40;57.20;;;;;;5001731;27;94853;-70
2022/07/25 08:57:27;;;;;;;63.90;51.75;;;26.40;57.10;;;;;;5005686;27;94862;-70
2022/07/25 08:59:57;;;;;;;63.60;51.65;;;26.40;57.10;;;;;;5015942;27;95467;-71
2022/07/25 09:02:24;;;;;;;62.22;51.58;;;26.50;57.10;;;;;;4999720;27;95352;-71
2022/07/25 09:04:50;;;;;;;63.50;51.65;;;26.40;57.10;;;;;;5011198;27;99768;-70
2022/07/25 09:07:16;;;;;;;62.80;51.85;;;26.50;57.10;;;;;;4998472;27;94936;-70
2022/07/25 09:09:43;;;;;;;64.93;51.67;;;26.40;57.00;;;;;;5000167;27;94831;-71
2022/07/25 09:12:09;;;;;;;63.92;51.72;;;26.40;57.00;;;;;;4983804;28;97921;-71
2022/07/25 09:14:44;;;;;;;65.03;51.83;;;26.40;57.10;;;;;;5000797;27;94970;-71
2022/07/25 09:17:09;;;;;;;65.80;51.63;;;26.40;57.10;;;;;;4997892;27;97360;-70
2022/07/25 09:19:35;;;;;;;62.80;51.78;;;26.40;57.00;;;;;;5011913;27;96262;-70
2022/07/25 09:22:03;;;;;;;63.28;51.67;;;26.40;57.00;;;;;;5006241;27;94435;-70
2022/07/25 09:24:31;;;;;;;63.25;51.65;;;26.40;57.00;;;;;;4977269;28;95397;-70
2022/07/25 09:26:59;;;;;;;64.95;52.05;;;26.40;56.90;;;;;;5004215;27;94861;-71
2022/07/25 09:29:27;;;;;;;64.28;51.97;;;26.40;56.90;;;;;;4989376;27;96172;-70
2022/07/25 09:31:54;;;;;;;65.00;51.95;;;26.40;56.80;;;;;;4996703;27;96002;-71
2022/07/25 09:34:35;;;;;;;63.58;51.65;;;26.50;56.80;;;;;;5004663;27;97548;-70
2022/07/25 09:37:02;;;;;;;65.60;51.95;;;26.50;57.40;;;;;;4981575;27;99296;-70
2022/07/25 09:39:45;;;;;;;65.70;52.03;;;26.50;56.80;;;;;;4991101;27;96582;-71
2022/07/25 09:42:15;;;;;;;63.35;51.35;;;26.50;56.80;;;;;;5007065;27;98461;-72
2022/07/25 09:44:40;;;;;;;63.45;51.80;;;26.40;56.80;;;;;;4976704;27;94820;-70
2022/07/25 09:47:13;;;;;;;64.20;52.05;;;26.40;56.80;;;;;;4995423;27;96167;-71
2022/07/25 09:49:43;;;;;;;63.63;51.58;;;26.40;56.80;;;;;;4999605;27;96590;-70
2022/07/25 09:52:10;;;;;;;62.92;51.72;;;26.40;56.80;;;;;;5010531;27;96400;-71
2022/07/25 09:54:37;;;;;;;64.05;51.70;;;26.40;56.80;;;;;;5003455;27;100977;-71
2022/07/25 09:57:03;;;;;;;62.50;51.72;;;26.40;56.80;;;;;;5001029;27;96002;-70
2022/07/25 09:59:29;;;;;;;63.33;51.75;;;26.40;56.70;;;;;;4998817;27;98312;-71
2022/07/25 10:02:23;;;;;;;64.00;51.60;;;26.40;56.80;;;;;;5010509;27;97123;-70
2022/07/25 10:05:03;;;;;;;63.97;51.92;;;26.30;56.70;;;;;;5008001;27;94586;-71
2022/07/25 10:07:30;;;;;;;63.13;51.83;;;26.40;56.70;;;;;;5002394;27;100792;-70
2022/07/25 10:09:56;;;;;;;64.55;51.80;;;26.40;56.70;;;;;;4999241;27;95204;-72
2022/07/25 10:12:22;;;;;;;64.40;51.65;;;26.40;56.60;;;;;;5005219;27;95883;-70
2022/07/25 10:15:07;;;;;;;63.15;51.85;;;26.40;56.60;;;;;;5007428;27;95351;-73
2022/07/25 10:17:33;;;;;;;64.90;51.67;;;26.40;56.60;;;;;;5005927;27;96423;-70
2022/07/25 10:20:00;;;;;;;63.08;51.70;;;26.40;56.60;;;;;;4987412;27;98657;-71
2022/07/25 10:22:36;;;;;;;63.40;51.33;;;26.40;56.60;;;;;;4973582;27;98552;-70
2022/07/25 10:25:18;;;;;;;63.83;51.60;;;26.40;56.60;;;;;;4996021;27;97092;-71
2022/07/25 10:27:49;;;;;;;63.95;51.53;;;26.40;56.60;;;;;;4999906;27;96361;-70
2022/07/25 10:30:24;;;;;;;62.30;51.55;;;26.50;56.60;;;;;;5010652;27;95266;-71
2022/07/25 10:33:13;;;;;;;63.45;51.85;;;26.50;56.60;;;;;;5005209;27;94686;-70
2022/07/25 10:35:40;;;;;;;63.53;51.70;;;26.40;56.60;;;;;;5002699;27;94599;-71
2022/07/25 10:38:06;;;;;;;62.88;51.67;;;26.40;56.60;;;;;;5012543;27;94735;-70
2022/07/25 10:40:38;;;;;;;63.67;51.65;;;26.40;56.60;;;;;;5000359;27;96699;-70
2022/07/25 10:43:13;;;;;;;62.95;51.75;;;26.40;56.50;;;;;;5000144;27;95536;-70
2022/07/25 10:46:03;;;;;;;62.78;51.65;;;26.40;56.50;;;;;;4998563;27;96937;-70
2022/07/25 10:48:30;;;;;;;63.10;51.80;;;26.40;56.50;;;;;;5011332;27;94653;-70
2022/07/25 10:50:56;;;;;;;63.83;51.92;;;26.50;56.50;;;;;;5006160;27;96072;-70
2022/07/25 10:53:44;;;;;;;63.53;51.85;;;26.50;56.50;;;;;;4984358;27;98537;-70
2022/07/25 10:56:18;;;;;;;63.55;51.78;;;26.50;56.60;;;;;;5003907;27;97022;-71
2022/07/25 10:58:50;;;;;;;63.53;51.78;;;26.40;56.60;;;;;;5007007;27;94863;-71
2022/07/25 11:01:21;;;;;;;64.03;51.90;;;26.40;56.70;;;;;;4998336;27;96119;-70
2022/07/25 11:03:48;;;;;;;63.13;51.55;;;26.40;56.80;;;;;;4994417;27;94087;-71
2022/07/25 11:06:14;;;;;;;63.08;51.85;;;26.40;56.70;;;;;;5000306;27;95675;-71
2022/07/25 11:08:40;;;;;;;63.05;51.72;;;26.50;56.70;;;;;;4987004;28;100788;-71
2022/07/25 11:11:07;;;;;;;63.75;51.80;;;26.50;56.70;;;;;;5002013;27;96592;-70
2022/07/25 11:13:38;;;;;;;64.68;52.17;;;26.50;56.60;;;;;;4994276;27;97164;-71
2022/07/25 11:16:04;;;;;;;64.32;51.95;;;26.50;56.70;;;;;;5009695;27;96724;-71
2022/07/25 11:18:36;;;;;;;65.38;52.13;;;26.50;56.80;;;;;;4999724;27;96823;-70
2022/07/25 11:21:04;;;;;;;63.60;51.85;;;26.50;56.70;;;;;;4999282;27;95475;-70
2022/07/25 11:23:30;;;;;;;64.15;52.03;;;26.50;56.70;;;;;;5001575;27;95029;-71
2022/07/25 11:26:12;;;;;;;63.92;51.92;;;26.50;56.70;;;;;;5009017;27;94756;-70
2022/07/25 11:28:38;;;;;;;64.18;51.83;;;26.50;56.70;;;;;;4996830;27;102185;-71
2022/07/25 11:31:04;;;;;;;64.63;51.97;;;26.50;56.60;;;;;;5001492;27;95746;-70
2022/07/25 11:33:30;;;;;;;64.07;52.05;;;26.50;56.60;;;;;;5015006;27;95141;-71
2022/07/25 11:35:58;;;;;;;64.90;52.25;;;26.60;56.60;;;;;;5004706;27;95722;-70
2022/07/25 11:38:25;;;;;;;63.78;52.15;;;26.60;56.50;;;;;;4998575;27;95109;-70
2022/07/25 11:40:50;;;;;;;63.80;52.22;;;26.70;56.40;;;;;;4999504;27;97781;-70
2022/07/25 11:43:21;;;;;;;65.45;52.10;;;26.70;56.40;;;;;;5000453;27;95252;-71
2022/07/25 11:46:03;;;;;;;67.75;52.17;;;26.70;56.60;;;;;;4979875;28;95097;-71
2022/07/25 11:48:31;;;;;;;63.97;52.15;;;26.60;56.40;;;;;;5011093;27;94673;-70
2022/07/25 11:50:56;;;;;;;64.13;52.08;;;26.60;56.50;;;;;;4996788;27;96740;-72
2022/07/25 11:53:24;;;;;;;63.00;51.92;;;26.60;56.50;;;;;;5017567;27;96284;-69
2022/07/25 11:55:50;;;;;;;63.90;52.03;;;26.60;56.40;;;;;;5000411;27;95511;-69
2022/07/25 11:58:17;;;;;;;64.45;52.28;;;26.60;56.40;;;;;;5005084;27;95425;-70
2022/07/25 12:00:45;;;;;;;65.13;51.92;;;26.70;56.40;;;;;;5003690;27;98114;-71
2022/07/25 12:03:13;;;;;;;64.25;52.13;;;26.70;56.30;;;;;;5002625;27;95699;-70
2022/07/25 12:05:40;;;;;;;63.70;51.78;;;26.70;56.40;;;;;;4998635;27;95325;-70
2022/07/25 12:08:12;;;;;;;64.65;52.22;;;26.60;56.30;;;;;;5006579;27;94649;-69
2022/07/25 12:10:39;;;;;;;63.45;52.05;;;26.70;56.20;;;;;;5004672;27;95501;-70
2022/07/25 12:13:07;;;;;;;64.40;51.88;;;26.80;56.10;;;;;;4981230;28;97764;-70
2022/07/25 12:15:37;;;;;;;65.25;51.95;;;26.80;55.90;;;;;;5012589;27;94981;-70
2022/07/25 12:18:03;;;;;;;65.38;51.88;;;26.80;55.90;;;;;;4996378;27;93908;-70
2022/07/25 12:20:31;;;;;;;63.17;51.83;;;26.80;55.90;;;;;;4991572;27;95802;-70
2022/07/25 12:23:01;;;;;;;63.78;52.03;;;26.90;55.80;;;;;;5011683;27;96298;-70
2022/07/25 12:25:28;;;;;;;63.80;52.15;;;26.90;55.70;;;;;;5004723;27;96490;-70